createdAt,value
2018-02-10T00:00:54.023Z,56.17
2018-02-10T00:03:21.863Z,49.30
2018-02-10T00:05:49.698Z,55.37
2018-02-10T00:08:17.564Z,54.70
2018-02-10T00:10:45.409Z,53.93
2018-02-10T00:13:13.267Z,55.00
2018-02-10T00:15:41.160Z,53.20
2018-02-10T00:18:09.046Z,51.20
2018-02-10T00:20:36.916Z,55.40
2018-02-10T00:23:04.795Z,57.57
2018-02-10T00:25:32.666Z,54.00
2018-02-10T00:28:00.512Z,52.43
2018-02-10T00:30:28.367Z,56.10
2018-02-10T00:32:56.191Z,55.47
2018-02-10T00:35:24.028Z,56.13
2018-02-10T00:37:51.893Z,52.73
2018-02-10T00:40:19.793Z,51.63
2018-02-10T00:42:47.619Z,49.53
2018-02-10T00:45:15.500Z,53.13
2018-02-10T00:47:43.375Z,53.90
2018-02-10T00:50:11.226Z,55.23
2018-02-10T00:52:39.106Z,54.80
2018-02-10T00:55:06.997Z,55.70
2018-02-10T00:57:34.854Z,51.27
2018-02-10T01:00:02.714Z,50.87
2018-02-10T01:02:30.577Z,54.90
2018-02-10T01:04:58.406Z,54.70
2018-02-10T01:07:26.317Z,52.93
2018-02-10T01:09:54.141Z,53.50
2018-02-10T01:12:21.978Z,58.53
2018-02-10T01:14:49.878Z,54.97
2018-02-10T01:17:17.762Z,54.27
2018-02-10T01:19:45.641Z,56.07
2018-02-10T01:22:13.532Z,54.47
2018-02-10T01:24:41.391Z,55.90
2018-02-10T01:27:09.249Z,55.53
2018-02-10T01:29:37.113Z,53.80
2018-02-10T01:32:04.977Z,55.57
2018-02-10T01:34:32.871Z,52.10
2018-02-10T01:37:00.731Z,52.57
2018-02-10T01:39:28.592Z,57.30
2018-02-10T01:41:56.456Z,53.80
2018-02-10T01:44:24.310Z,57.00
2018-02-10T01:46:52.149Z,58.87
2018-02-10T01:49:20.178Z,56.33
2018-02-10T01:51:48.072Z,55.50
2018-02-10T01:54:15.943Z,58.30
2018-02-10T01:56:43.783Z,54.97
2018-02-10T01:59:11.675Z,57.33
2018-02-10T02:01:39.544Z,56.47
2018-02-10T02:04:07.451Z,56.97
2018-02-10T02:06:35.357Z,60.63
2018-02-10T02:09:03.224Z,57.97
2018-02-10T02:11:31.059Z,56.33
2018-02-10T02:13:58.906Z,57.50
2018-02-10T02:16:26.793Z,56.20
2018-02-10T02:18:54.649Z,58.67
2018-02-10T02:21:22.528Z,56.77
2018-02-10T02:23:50.358Z,56.90
2018-02-10T02:26:18.284Z,55.30
2018-02-10T02:28:46.163Z,56.47
2018-02-10T02:31:14.007Z,54.80
2018-02-10T02:33:41.850Z,58.30
2018-02-10T02:36:09.755Z,58.53
2018-02-10T02:38:37.612Z,54.50
2018-02-10T02:41:05.450Z,58.30
2018-02-10T02:43:33.323Z,55.97
2018-02-10T02:46:01.190Z,58.67
2018-02-10T02:48:29.051Z,58.10
2018-02-10T02:50:56.947Z,56.50
2018-02-10T02:53:24.781Z,59.87
2018-02-10T02:55:52.655Z,57.63
2018-02-10T02:58:20.524Z,58.07
2018-02-10T03:00:48.385Z,59.43
2018-02-10T03:03:16.251Z,59.00
2018-02-10T03:05:44.147Z,58.50
2018-02-10T03:08:12.478Z,58.20
2018-02-10T03:10:40.632Z,57.87
2018-02-10T03:13:08.502Z,59.13
2018-02-10T03:15:36.362Z,60.30
2018-02-10T03:18:04.249Z,58.43
2018-02-10T03:20:32.106Z,60.43
2018-02-10T03:22:59.961Z,60.00
2018-02-10T03:25:27.799Z,59.57
2018-02-10T03:27:55.669Z,58.30
2018-02-10T03:30:23.505Z,60.60
2018-02-10T03:32:51.350Z,59.03
2018-02-10T03:35:19.224Z,57.57
2018-02-10T03:37:47.061Z,59.90
2018-02-10T03:40:14.911Z,56.87
2018-02-10T03:42:42.802Z,58.43
2018-02-10T03:45:10.795Z,59.23
2018-02-10T03:47:38.648Z,58.50
2018-02-10T03:50:06.574Z,55.40
2018-02-10T03:52:34.539Z,56.77
2018-02-10T03:55:02.395Z,57.10
2018-02-10T03:57:30.274Z,54.90
2018-02-10T03:59:58.095Z,59.60
2018-02-10T04:02:25.945Z,55.10
2018-02-10T04:04:53.797Z,56.27
2018-02-10T04:07:21.626Z,55.93
2018-02-10T04:09:49.475Z,56.23
2018-02-10T04:12:17.348Z,54.03
2018-02-10T04:14:45.200Z,58.70
2018-02-10T04:17:13.105Z,57.47
2018-02-10T04:19:41.019Z,58.23
2018-02-10T04:22:08.851Z,57.30
2018-02-10T04:24:36.710Z,57.60
2018-02-10T04:27:04.583Z,53.83
2018-02-10T04:29:32.506Z,54.60
2018-02-10T04:32:00.345Z,54.03
2018-02-10T04:34:28.245Z,56.70
2018-02-10T04:36:56.203Z,52.60
2018-02-10T04:39:24.106Z,56.60
2018-02-10T04:41:51.948Z,55.87
2018-02-10T04:44:19.811Z,53.40
2018-02-10T04:46:47.686Z,55.40
2018-02-10T04:49:15.540Z,51.87
2018-02-10T04:51:43.418Z,52.60
2018-02-10T04:54:11.279Z,55.37
2018-02-10T04:56:39.126Z,51.90
2018-02-10T04:59:07.004Z,52.70
2018-02-10T05:01:34.863Z,53.67
2018-02-10T05:04:02.734Z,55.20
2018-02-10T05:06:30.561Z,48.27
2018-02-10T05:08:58.433Z,52.73
2018-02-10T05:11:26.319Z,51.03
2018-02-10T05:13:54.168Z,50.77
2018-02-10T05:16:22.031Z,52.00
2018-02-10T05:18:49.914Z,52.80
2018-02-10T05:21:17.755Z,52.60
2018-02-10T05:23:45.626Z,52.93
2018-02-10T05:26:13.509Z,52.43
2018-02-10T05:28:41.372Z,52.63
2018-02-10T05:31:09.262Z,51.80
2018-02-10T05:33:37.203Z,51.50
2018-02-10T05:36:05.079Z,51.07
2018-02-10T05:38:32.942Z,54.70
2018-02-10T05:41:00.815Z,53.70
2018-02-10T05:43:28.657Z,56.33
2018-02-10T05:45:56.519Z,54.67
2018-02-10T05:48:24.385Z,52.17
2018-02-10T05:50:52.227Z,50.53
2018-02-10T05:53:20.432Z,52.47
2018-02-10T05:55:48.263Z,51.03
2018-02-10T05:58:16.106Z,53.40
2018-02-10T06:00:43.995Z,50.43
2018-02-10T06:03:11.828Z,52.40
2018-02-10T06:05:39.682Z,49.80
2018-02-10T06:08:07.514Z,50.17
2018-02-10T06:10:35.343Z,53.93
2018-02-10T06:13:03.215Z,53.07
2018-02-10T06:15:31.055Z,51.40
2018-02-10T06:17:58.936Z,51.80
2018-02-10T06:20:26.837Z,52.97
2018-02-10T06:22:54.678Z,51.37
2018-02-10T06:25:22.562Z,48.87
2018-02-10T06:27:50.418Z,52.70
2018-02-10T06:30:18.272Z,54.00
2018-02-10T06:32:46.116Z,51.20
2018-02-10T06:35:13.958Z,51.13
2018-02-10T06:37:41.833Z,52.60
2018-02-10T06:40:09.672Z,52.87
2018-02-10T06:42:37.539Z,50.37
2018-02-10T06:45:05.409Z,51.60
2018-02-10T06:47:33.243Z,53.10
2018-02-10T06:50:01.102Z,53.03
2018-02-10T06:52:28.959Z,52.73
2018-02-10T06:54:56.786Z,48.77
2018-02-10T06:57:24.619Z,47.50
2018-02-10T06:59:52.471Z,49.57
2018-02-10T07:02:20.315Z,49.73
2018-02-10T07:04:48.159Z,50.47
2018-02-10T07:07:16.036Z,50.37
2018-02-10T07:09:43.867Z,50.03
2018-02-10T07:12:14.436Z,51.30
2018-02-10T07:14:56.433Z,51.93
2018-02-10T07:17:24.263Z,48.30
2018-02-10T07:19:52.125Z,48.63
2018-02-10T07:22:20.188Z,50.60
2018-02-10T07:24:48.221Z,48.20
2018-02-10T07:27:16.075Z,51.57
2018-02-10T07:29:43.986Z,50.33
2018-02-10T07:32:11.880Z,50.30
2018-02-10T07:34:39.727Z,50.23
2018-02-10T07:37:07.592Z,50.53
2018-02-10T07:39:35.460Z,49.50
2018-02-10T07:42:04.356Z,51.37
2018-02-10T07:44:32.227Z,46.70
2018-02-10T07:47:00.070Z,46.20
2018-02-10T07:49:27.916Z,47.97
2018-02-10T07:51:55.782Z,46.37
2018-02-10T07:54:23.735Z,49.60
2018-02-10T07:56:51.600Z,49.43
2018-02-10T07:59:19.467Z,46.37
2018-02-10T08:01:47.303Z,50.73
2018-02-10T08:04:15.163Z,47.70
2018-02-10T08:06:43.035Z,48.73
2018-02-10T08:09:11.050Z,49.00
2018-02-10T08:11:38.906Z,48.50
2018-02-10T08:14:06.817Z,49.00
2018-02-10T08:16:34.691Z,49.57
2018-02-10T08:19:02.541Z,49.67
2018-02-10T08:21:31.419Z,51.90
2018-02-10T08:23:59.292Z,50.10
2018-02-10T08:26:27.122Z,50.83
2018-02-10T08:28:55.000Z,49.37
2018-02-10T08:31:22.827Z,49.53
2018-02-10T08:33:50.667Z,51.43
2018-02-10T08:36:18.540Z,48.70
2018-02-10T08:38:46.412Z,47.60
2018-02-10T08:41:14.529Z,49.00
2018-02-10T08:43:42.388Z,49.80
2018-02-10T08:46:10.244Z,45.83
2018-02-10T08:48:38.100Z,46.53
2018-02-10T08:51:06.018Z,49.67
2018-02-10T08:53:33.867Z,46.60
2018-02-10T08:56:01.712Z,46.00
2018-02-10T08:58:29.584Z,48.20
2018-02-10T09:00:57.425Z,47.83
2018-02-10T09:03:25.268Z,46.17
2018-02-10T09:05:53.120Z,46.20
2018-02-10T09:08:20.978Z,45.60
2018-02-10T09:10:48.852Z,46.70
2018-02-10T09:13:16.736Z,44.10
2018-02-10T09:15:44.563Z,46.37
2018-02-10T09:18:12.411Z,44.93
2018-02-10T09:20:40.364Z,46.97
2018-02-10T09:23:08.191Z,46.97
2018-02-10T09:25:36.200Z,46.67
2018-02-10T09:28:04.083Z,47.83
2018-02-10T09:30:31.928Z,46.83
2018-02-10T09:32:59.812Z,47.63
2018-02-10T09:35:27.679Z,47.23
2018-02-10T09:37:55.537Z,47.70
2018-02-10T09:40:23.414Z,46.97
2018-02-10T09:42:51.277Z,47.37
2018-02-10T09:45:19.276Z,48.40
2018-02-10T09:47:47.157Z,48.70
2018-02-10T09:50:15.096Z,48.77
2018-02-10T09:52:43.412Z,45.33
2018-02-10T09:55:11.329Z,47.03
2018-02-10T09:57:39.213Z,45.40
2018-02-10T10:00:08.135Z,47.80
2018-02-10T10:02:35.978Z,47.97
2018-02-10T10:05:04.910Z,47.30
2018-02-10T10:07:32.784Z,49.93
2018-02-10T10:10:00.824Z,49.87
2018-02-10T10:12:28.680Z,49.43
2018-02-10T10:14:56.524Z,51.23
2018-02-10T10:17:24.488Z,50.30
2018-02-10T10:19:52.417Z,49.47
2018-02-10T10:22:20.247Z,49.17
2018-02-10T10:24:48.118Z,50.20
2018-02-10T10:27:16.015Z,50.10
2018-02-10T10:29:43.869Z,47.80
2018-02-10T10:32:11.801Z,48.00
2018-02-10T10:34:39.702Z,48.43
2018-02-10T10:37:07.550Z,48.40
2018-02-10T10:39:35.539Z,48.40
2018-02-10T10:42:03.399Z,49.60
2018-02-10T10:44:31.256Z,50.07
2018-02-10T10:46:59.104Z,46.40
2018-02-10T10:49:26.976Z,48.70
2018-02-10T10:51:54.809Z,47.10
2018-02-10T10:54:22.640Z,43.97
2018-02-10T10:56:50.499Z,45.07
2018-02-10T10:59:18.323Z,44.20
2018-02-10T11:01:46.245Z,41.23
2018-02-10T11:04:14.123Z,44.37
2018-02-10T11:06:42.074Z,43.80
2018-02-10T11:09:10.046Z,42.87
2018-02-10T11:11:38.007Z,45.67
2018-02-10T11:14:05.909Z,41.07
2018-02-10T11:16:33.757Z,41.63
2018-02-10T11:19:01.628Z,41.23
2018-02-10T11:21:29.469Z,40.63
2018-02-10T11:23:57.303Z,40.00
2018-02-10T11:26:25.354Z,40.17
2018-02-10T11:28:53.220Z,37.57
2018-02-10T11:31:22.230Z,39.60
2018-02-10T11:33:50.107Z,38.27
2018-02-10T11:36:17.954Z,40.07
2018-02-10T11:38:45.803Z,37.17
2018-02-10T11:41:13.679Z,36.63
2018-02-10T11:43:41.602Z,38.37
2018-02-10T11:46:09.435Z,35.53
2018-02-10T11:48:37.360Z,34.03
2018-02-10T11:51:05.238Z,35.80
2018-02-10T11:53:33.162Z,35.40
2018-02-10T11:56:01.089Z,35.77
2018-02-10T11:58:28.957Z,32.00
2018-02-10T12:00:56.846Z,32.60
2018-02-10T12:03:26.974Z,34.40
2018-02-10T12:05:54.888Z,32.17
2018-02-10T12:08:22.887Z,33.17
2018-02-10T12:10:50.871Z,31.83
2018-02-10T12:13:18.727Z,33.30
2018-02-10T12:15:46.557Z,32.67
2018-02-10T12:18:14.419Z,31.47
2018-02-10T12:20:42.247Z,29.47
2018-02-10T12:23:10.097Z,34.73
2018-02-10T12:25:37.999Z,32.43
2018-02-10T12:28:06.041Z,32.77
2018-02-10T12:30:33.949Z,34.17
2018-02-10T12:33:01.957Z,34.17
2018-02-10T12:35:29.807Z,33.93
2018-02-10T12:37:57.633Z,36.90
2018-02-10T12:40:25.479Z,33.23
2018-02-10T12:42:55.886Z,32.60
2018-02-10T12:45:23.727Z,31.73
2018-02-10T12:47:57.787Z,34.53
2018-02-10T12:50:25.615Z,34.80
2018-02-10T12:52:53.941Z,32.63
2018-02-10T12:55:22.309Z,33.13
2018-02-10T12:57:50.223Z,33.60
2018-02-10T13:00:18.398Z,33.27
2018-02-10T13:02:46.250Z,36.27
2018-02-10T13:05:14.143Z,35.50
2018-02-10T13:07:42.071Z,36.83
2018-02-10T13:10:10.027Z,35.73
2018-02-10T13:12:37.995Z,34.60
2018-02-10T13:15:06.630Z,33.27
2018-02-10T13:17:37.446Z,36.00
2018-02-10T13:20:05.839Z,36.93
2018-02-10T13:22:47.045Z,35.70
2018-02-10T13:25:19.284Z,36.50
2018-02-10T13:27:50.256Z,37.80
2018-02-10T13:30:18.499Z,37.47
2018-02-10T13:32:46.423Z,36.93
2018-02-10T13:35:14.334Z,35.60
2018-02-10T13:37:42.171Z,40.00
2018-02-10T13:40:10.022Z,37.73
2018-02-10T13:42:37.937Z,37.67
2018-02-10T13:45:05.944Z,37.87
2018-02-10T13:47:34.075Z,40.80
2018-02-10T13:50:02.037Z,37.13
2018-02-10T13:52:29.906Z,36.70
2018-02-10T13:54:57.743Z,39.73
2018-02-10T13:57:25.620Z,38.40
2018-02-10T13:59:53.471Z,38.33
2018-02-10T14:02:21.345Z,41.30
2018-02-10T14:04:49.207Z,44.13
2018-02-10T14:07:17.084Z,44.17
2018-02-10T14:09:45.548Z,37.80
2018-02-10T14:12:13.403Z,39.97
2018-02-10T14:14:41.247Z,40.37
2018-02-10T14:17:09.104Z,38.50
2018-02-10T14:19:37.004Z,37.90
2018-02-10T14:22:04.994Z,37.10
2018-02-10T14:24:33.033Z,41.53
2018-02-10T14:27:00.898Z,48.40
2018-02-10T14:29:28.730Z,39.00
2018-02-10T14:31:56.620Z,38.77
2018-02-10T14:34:24.576Z,41.20
2018-02-10T14:36:52.465Z,38.50
2018-02-10T14:39:20.306Z,37.90
2018-02-10T14:41:48.253Z,38.43
2018-02-10T14:44:16.123Z,38.40
2018-02-10T14:46:44.078Z,41.00
2018-02-10T14:49:12.072Z,38.77
2018-02-10T14:51:39.936Z,39.43
2018-02-10T14:54:07.800Z,39.70
2018-02-10T14:56:35.768Z,38.13
2018-02-10T14:59:03.634Z,32.70
2018-02-10T15:01:31.479Z,37.60
2018-02-10T15:03:59.371Z,35.30
2018-02-10T15:06:27.315Z,34.57
2018-02-10T15:08:57.347Z,39.50
2018-02-10T15:11:25.256Z,39.87
2018-02-10T15:13:53.203Z,41.63
2018-02-10T15:16:22.627Z,40.07
2018-02-10T15:18:50.592Z,37.60
2018-02-10T15:21:18.451Z,45.40
2018-02-10T15:23:46.355Z,39.03
2018-02-10T15:26:14.387Z,42.80
2018-02-10T15:28:42.352Z,39.33
2018-02-10T15:31:16.567Z,39.00
2018-02-10T15:33:50.691Z,39.13
2018-02-10T15:36:18.756Z,38.70
2018-02-10T15:38:46.794Z,38.50
2018-02-10T15:41:14.724Z,38.80
2018-02-10T15:43:42.735Z,37.57
2018-02-10T15:46:10.591Z,36.67
2018-02-10T15:48:38.467Z,36.30
2018-02-10T15:51:06.892Z,36.07
2018-02-10T15:53:34.767Z,37.47
2018-02-10T15:56:02.740Z,36.93
2018-02-10T15:58:31.040Z,36.97
2018-02-10T16:00:58.998Z,35.13
2018-02-10T16:03:26.856Z,36.20
2018-02-10T16:05:54.769Z,37.43
2018-02-10T16:08:22.621Z,36.73
2018-02-10T16:10:50.896Z,35.10
2018-02-10T16:13:18.832Z,36.17
2018-02-10T16:15:46.704Z,36.20
2018-02-10T16:18:14.585Z,37.37
2018-02-10T16:20:42.458Z,35.23
2018-02-10T16:23:10.304Z,37.10
2018-02-10T16:25:38.170Z,35.67
2018-02-10T16:28:06.106Z,35.67
2018-02-10T16:30:34.387Z,36.70
2018-02-10T16:33:02.313Z,33.07
2018-02-10T16:35:30.197Z,34.40
2018-02-10T16:37:58.080Z,35.70
2018-02-10T16:40:25.940Z,36.03
2018-02-10T16:42:53.807Z,33.90
2018-02-10T16:45:21.694Z,34.90
2018-02-10T16:47:49.551Z,34.23
2018-02-10T16:50:17.417Z,33.87
2018-02-10T16:52:45.339Z,36.20
2018-02-10T16:55:13.214Z,33.00
2018-02-10T16:57:41.075Z,35.70
2018-02-10T17:00:09.075Z,35.93
2018-02-10T17:02:37.972Z,36.33
2018-02-10T17:05:05.832Z,36.23
2018-02-10T17:07:33.755Z,37.40
2018-02-10T17:10:01.587Z,38.90
2018-02-10T17:12:29.488Z,31.77
2018-02-10T17:14:57.391Z,35.20
2018-02-10T17:17:25.224Z,34.17
2018-02-10T17:19:53.122Z,32.60
2018-02-10T17:22:20.975Z,35.40
2018-02-10T17:24:48.843Z,34.93
2018-02-10T17:27:16.776Z,35.73
2018-02-10T17:29:44.671Z,32.90
2018-02-10T17:32:13.279Z,32.40
2018-02-10T17:34:41.174Z,29.50
2018-02-10T17:37:09.694Z,33.23
2018-02-10T17:39:37.552Z,30.57
2018-02-10T17:42:05.655Z,31.07
2018-02-10T17:44:33.918Z,31.57
2018-02-10T17:47:01.907Z,30.63
2018-02-10T17:49:29.890Z,29.77
2018-02-10T17:51:57.975Z,32.93
2018-02-10T17:54:25.849Z,30.43
2018-02-10T17:56:53.937Z,30.80
2018-02-10T17:59:22.019Z,28.70
2018-02-10T18:01:49.939Z,31.10
2018-02-10T18:04:17.881Z,32.00
2018-02-10T18:06:45.774Z,31.03
2018-02-10T18:09:13.649Z,30.47
2018-02-10T18:11:41.487Z,32.83
2018-02-10T18:14:09.357Z,32.80
2018-02-10T18:16:37.271Z,29.77
2018-02-10T18:19:05.189Z,32.73
2018-02-10T18:21:33.027Z,30.17
2018-02-10T18:24:00.889Z,32.07
2018-02-10T18:26:28.773Z,30.80
2018-02-10T18:28:56.628Z,30.00
2018-02-10T18:31:24.500Z,31.20
2018-02-10T18:33:52.331Z,29.90
2018-02-10T18:36:20.272Z,34.57
2018-02-10T18:38:48.220Z,29.90
2018-02-10T18:41:16.068Z,31.67
2018-02-10T18:43:43.928Z,31.27
2018-02-10T18:46:11.804Z,31.70
2018-02-10T18:48:39.659Z,30.00
2018-02-10T18:51:07.542Z,31.50
2018-02-10T18:53:35.423Z,32.00
2018-02-10T18:56:03.301Z,31.77
2018-02-10T18:58:31.129Z,31.83
2018-02-10T19:00:59.009Z,31.30
2018-02-10T19:03:26.870Z,30.93
2018-02-10T19:05:54.742Z,31.87
2018-02-10T19:08:22.597Z,30.80
2018-02-10T19:10:50.442Z,29.70
2018-02-10T19:13:18.303Z,31.77
2018-02-10T19:15:46.144Z,29.97
2018-02-10T19:18:14.554Z,31.07
2018-02-10T19:20:42.386Z,27.27
2018-02-10T19:23:10.310Z,29.43
2018-02-10T19:25:38.164Z,30.87
2018-02-10T19:28:06.080Z,30.17
2018-02-10T19:30:33.955Z,31.20
2018-02-10T19:33:01.851Z,31.43
2018-02-10T19:35:29.692Z,29.10
2018-02-10T19:37:57.582Z,30.33
2018-02-10T19:40:25.456Z,31.37
2018-02-10T19:42:53.299Z,30.07
2018-02-10T19:45:21.151Z,30.60
2018-02-10T19:47:49.023Z,31.17
2018-02-10T19:50:16.901Z,31.87
2018-02-10T19:52:44.831Z,31.60
2018-02-10T19:55:12.848Z,29.80
2018-02-10T19:57:40.757Z,28.97
2018-02-10T20:00:08.817Z,29.30
2018-02-10T20:02:36.935Z,29.07
2018-02-10T20:05:04.965Z,29.43
2018-02-10T20:07:32.909Z,30.57
2018-02-10T20:10:00.823Z,30.60
2018-02-10T20:12:28.660Z,31.50
2018-02-10T20:14:56.499Z,30.63
2018-02-10T20:17:24.531Z,29.23
2018-02-10T20:19:52.440Z,31.10
2018-02-10T20:22:20.308Z,28.30
2018-02-10T20:24:48.189Z,28.33
2018-02-10T20:27:16.047Z,28.50
2018-02-10T20:29:43.888Z,30.27
2018-02-10T20:32:11.769Z,29.90
2018-02-10T20:34:39.634Z,31.00
2018-02-10T20:37:07.489Z,32.77
2018-02-10T20:39:35.448Z,30.87
2018-02-10T20:42:03.338Z,29.10
2018-02-10T20:44:31.182Z,29.60
2018-02-10T20:46:59.433Z,31.53
2018-02-10T20:49:27.267Z,28.17
2018-02-10T20:51:56.122Z,30.27
2018-02-10T20:54:24.024Z,30.07
2018-02-10T20:56:51.884Z,31.30
2018-02-10T20:59:19.792Z,32.50
2018-02-10T21:01:47.880Z,30.50
2018-02-10T21:04:15.723Z,30.57
2018-02-10T21:06:43.744Z,31.07
2018-02-10T21:09:11.630Z,31.47
2018-02-10T21:11:40.453Z,31.10
2018-02-10T21:14:08.352Z,30.60
2018-02-10T21:16:36.195Z,31.23
2018-02-10T21:19:04.056Z,30.20
2018-02-10T21:21:31.907Z,30.80
2018-02-10T21:23:59.776Z,30.83
2018-02-10T21:26:27.611Z,30.37
2018-02-10T21:28:55.455Z,30.40
2018-02-10T21:31:23.331Z,30.60
2018-02-10T21:33:51.187Z,29.47
2018-02-10T21:36:19.032Z,29.87
2018-02-10T21:38:46.927Z,30.70
2018-02-10T21:41:14.806Z,30.00
2018-02-10T21:43:43.009Z,34.63
2018-02-10T21:46:10.920Z,33.50
2018-02-10T21:48:38.900Z,32.80
2018-02-10T21:51:06.759Z,32.63
2018-02-10T21:53:34.636Z,34.70
2018-02-10T21:56:02.521Z,30.93
2018-02-10T21:58:30.364Z,33.37
2018-02-10T22:00:59.288Z,33.77
2018-02-10T22:03:27.216Z,34.70
2018-02-10T22:05:55.226Z,32.17
2018-02-10T22:08:23.179Z,31.33
2018-02-10T22:10:51.060Z,32.60
2018-02-10T22:13:18.973Z,28.50
2018-02-10T22:15:47.052Z,29.90
2018-02-10T22:18:15.010Z,30.53
2018-02-10T22:20:42.913Z,32.40
2018-02-10T22:23:10.799Z,32.50
2018-02-10T22:25:38.716Z,32.53
2018-02-10T22:28:06.568Z,30.80
2018-02-10T22:30:34.531Z,32.93
2018-02-10T22:33:02.375Z,32.67
2018-02-10T22:35:30.213Z,31.70
2018-02-10T22:37:58.090Z,33.07
2018-02-10T22:40:26.072Z,31.33
2018-02-10T22:42:53.947Z,32.17
2018-02-10T22:45:21.930Z,32.90
2018-02-10T22:47:49.843Z,34.20
2018-02-10T22:50:17.731Z,33.93
2018-02-10T22:52:45.606Z,33.47
2018-02-10T22:55:13.443Z,33.43
2018-02-10T22:57:41.355Z,32.37
2018-02-10T23:00:09.203Z,32.80
2018-02-10T23:02:42.339Z,33.53
2018-02-10T23:05:10.974Z,35.60
2018-02-10T23:07:38.855Z,31.10
2018-02-10T23:10:07.534Z,35.87
2018-02-10T23:12:35.458Z,34.77
2018-02-10T23:15:03.383Z,36.20
2018-02-10T23:17:31.214Z,35.10
2018-02-10T23:19:59.044Z,35.83
2018-02-10T23:22:26.909Z,33.47
2018-02-10T23:24:54.739Z,36.57
2018-02-10T23:27:22.589Z,36.50
2018-02-10T23:29:50.998Z,33.90
2018-02-10T23:32:18.875Z,36.07
2018-02-10T23:34:46.747Z,37.73
2018-02-10T23:37:14.628Z,39.57
2018-02-10T23:39:42.503Z,36.93
2018-02-10T23:42:10.502Z,36.90
2018-02-10T23:44:38.470Z,34.07
2018-02-10T23:47:06.323Z,36.27
2018-02-10T23:49:34.187Z,37.37
2018-02-10T23:52:02.207Z,36.30
2018-02-10T23:54:30.164Z,36.43
2018-02-10T23:56:58.011Z,32.97
2018-02-10T23:59:25.860Z,34.10
